Time;durP1;ratioP1;P1;durP2;ratioP2;P2;SDS_P1;SDS_P2;PMS_P1;PMS_P2;Temp;Humidity;BMP_temperature;BMP_pressure;BME280_temperature;BME280_humidity;BME280_pressure;Samples;Min_cycle;Max_cycle;Signal;HPM_P1;HPM_P2
2021/04/04 00:00:11;;;;;;;9.13;6.53;;;;;;;-0.07;74.05;98659.38;5063838;28;20241;-66
2021/04/04 00:02:38;;;;;;;7.50;6.00;;;;;;;-0.13;74.38;98662.31;5063686;28;20242;-67
2021/04/04 00:05:08;;;;;;;9.17;6.57;;;;;;;-0.15;74.37;98659.78;5063289;28;20202;-67
2021/04/04 00:07:38;;;;;;;8.00;6.20;;;;;;;-0.18;74.37;98660.78;5062098;28;20199;-66
2021/04/04 00:10:06;;;;;;;6.70;5.97;;;;;;;-0.15;74.55;98658.00;5064725;28;20199;-67
2021/04/04 00:12:33;;;;;;;7.20;6.50;;;;;;;-0.10;74.39;98651.72;5062323;28;20289;-66
2021/04/04 00:15:00;;;;;;;7.40;6.70;;;;;;;-0.23;74.75;98654.09;5063726;28;20218;-67
2021/04/04 00:17:29;;;;;;;8.23;7.53;;;;;;;-0.23;76.07;98652.38;5063973;28;20294;-67
2021/04/04 00:19:56;;;;;;;9.17;7.00;;;;;;;-0.39;75.94;98657.50;5062797;28;20229;-66
2021/04/04 00:22:23;;;;;;;10.97;7.67;;;;;;;-0.45;77.60;98653.44;5059033;28;20203;-67
2021/04/04 00:24:50;;;;;;;8.40;6.33;;;;;;;-0.46;77.14;98651.78;5061838;28;20203;-67
2021/04/04 00:27:17;;;;;;;7.43;6.37;;;;;;;-0.51;76.70;98653.78;5063088;28;20209;-67
2021/04/04 00:29:44;;;;;;;8.60;6.33;;;;;;;-0.40;77.39;98648.03;5060344;28;20211;-68
2021/04/04 00:32:11;;;;;;;10.30;7.57;;;;;;;-0.42;76.18;98649.00;5057220;28;20643;-66
2021/04/04 00:34:39;;;;;;;9.17;6.50;;;;;;;-0.31;76.59;98650.16;5061499;28;20207;-67
2021/04/04 00:37:06;;;;;;;7.10;6.40;;;;;;;-0.25;76.22;98643.78;5058906;28;20212;-67
2021/04/04 00:39:32;;;;;;;8.10;6.50;;;;;;;-0.34;75.71;98644.28;5059334;28;20207;-67
2021/04/04 00:41:59;;;;;;;8.00;6.50;;;;;;;-0.31;76.64;98644.13;5059507;28;20207;-65
2021/04/04 00:44:26;;;;;;;7.00;6.07;;;;;;;-0.21;76.09;98640.09;5060313;28;20230;-67
2021/04/04 00:46:53;;;;;;;11.07;6.67;;;;;;;-0.29;75.48;98642.25;5059768;28;20209;-66
2021/04/04 00:49:20;;;;;;;8.93;6.50;;;;;;;-0.34;77.15;98633.84;5059022;28;20214;-65
2021/04/04 00:51:48;;;;;;;8.17;6.13;;;;;;;-0.17;75.35;98633.81;5062848;28;20218;-67
2021/04/04 00:54:15;;;;;;;8.23;6.30;;;;;;;-0.31;76.05;98636.28;5061082;28;20726;-67
2021/04/04 00:56:43;;;;;;;6.37;5.77;;;;;;;-0.46;77.47;98628.34;5061672;28;20674;-66
2021/04/04 00:59:10;;;;;;;6.97;5.87;;;;;;;-0.31;76.82;98631.09;5057081;28;20521;-65
2021/04/04 01:01:37;;;;;;;6.70;5.60;;;;;;;-0.25;76.34;98633.38;5060291;28;20701;-66
2021/04/04 01:04:04;;;;;;;7.60;6.17;;;;;;;-0.18;76.40;98639.09;5059786;28;20690;-66
2021/04/04 01:06:31;;;;;;;5.83;5.33;;;;;;;-0.12;75.66;98637.94;5060777;28;20206;-66
2021/04/04 01:08:59;;;;;;;6.47;5.97;;;;;;;0.05;75.32;98634.44;5060771;28;20203;-65
2021/04/04 01:11:31;;;;;;;13.50;7.17;;;;;;;0.18;74.50;98639.84;5059979;28;20203;-66
2021/04/04 01:14:03;;;;;;;6.73;5.83;;;;;;;-0.02;75.54;98616.53;5060929;28;20222;-66
2021/04/04 01:16:45;;;;;;;6.67;5.97;;;;;;;-0.07;75.80;98628.09;5062286;28;20217;-66
2021/04/04 01:19:16;;;;;;;7.73;5.83;;;;;;;-0.09;77.03;98633.41;5055778;28;20203;-65
2021/04/04 01:21:48;;;;;;;7.50;5.77;;;;;;;-0.07;76.64;98628.09;5061990;28;20238;-66
2021/04/04 01:24:28;;;;;;;9.40;7.57;;;;;;;-0.03;76.63;98625.25;5060789;28;20238;-65
2021/04/04 01:27:01;;;;;;;6.13;5.57;;;;;;;0.02;77.05;98629.38;5059068;28;20587;-66
2021/04/04 01:29:32;;;;;;;6.90;6.20;;;;;;;0.04;76.54;98623.19;5057930;28;20203;-66
2021/04/04 01:31:59;;;;;;;6.90;6.27;;;;;;;0.04;76.60;98620.56;5061316;28;20195;-66
2021/04/04 01:34:28;;;;;;;8.13;6.17;;;;;;;0.18;75.39;98629.41;5059500;28;20263;-66
2021/04/04 01:37:00;;;;;;;5.77;5.27;;;;;;;0.13;76.16;98634.84;5059905;28;20207;-66
2021/04/04 01:39:30;;;;;;;7.37;5.53;;;;;;;0.05;76.20;98629.22;5061159;28;20203;-66
2021/04/04 01:41:57;;;;;;;6.77;5.40;;;;;;;0.04;76.54;98631.00;5060929;28;20226;-66
2021/04/04 01:44:25;;;;;;;8.13;5.80;;;;;;;0.26;75.20;98632.44;5057705;28;20227;-65
2021/04/04 01:46:55;;;;;;;7.33;6.33;;;;;;;0.20;75.94;98627.56;5057264;28;20418;-67
2021/04/04 01:49:23;;;;;;;7.13;6.43;;;;;;;0.32;76.17;98631.28;5056251;28;20210;-65
2021/04/04 01:51:50;;;;;;;6.37;5.67;;;;;;;0.28;76.10;98630.59;5059781;28;20206;-66
2021/04/04 01:54:18;;;;;;;6.67;6.00;;;;;;;0.28;75.82;98631.44;5060535;28;20222;-67
2021/04/04 01:56:47;;;;;;;8.33;5.80;;;;;;;0.37;75.90;98629.25;5059131;28;20202;-67
2021/04/04 01:59:15;;;;;;;7.00;6.30;;;;;;;0.24;76.06;98629.06;5060546;28;20671;-66
2021/04/04 02:01:45;;;;;;;6.20;5.60;;;;;;;0.19;76.39;98628.47;5056224;28;20461;-66
2021/04/04 02:04:13;;;;;;;7.97;6.00;;;;;;;0.18;76.20;98625.03;5060330;28;20242;-66
2021/04/04 02:06:42;;;;;;;8.50;6.67;;;;;;;0.30;74.51;98623.53;5056420;28;20222;-66
2021/04/04 02:09:10;;;;;;;5.73;5.20;;;;;;;0.23;75.38;98623.03;5061100;28;20390;-68
2021/04/04 02:11:38;;;;;;;6.20;5.60;;;;;;;0.36;74.38;98617.97;5060093;28;20245;-66
2021/04/04 02:14:07;;;;;;;7.13;5.93;;;;;;;0.40;74.80;98618.66;5060552;28;20643;-66
2021/04/04 02:16:36;;;;;;;6.93;6.30;;;;;;;0.43;74.16;98618.47;5059781;28;20202;-66
2021/04/04 02:19:03;;;;;;;6.70;6.03;;;;;;;0.42;74.81;98616.81;5060209;28;20206;-66
2021/04/04 02:21:32;;;;;;;9.90;5.60;;;;;;;0.36;75.11;98625.78;5059606;28;20227;-67
2021/04/04 02:24:00;;;;;;;6.27;5.67;;;;;;;0.24;74.90;98621.25;5061089;28;20218;-66
2021/04/04 02:26:29;;;;;;;6.57;5.43;;;;;;;0.16;74.97;98623.44;5060007;28;20658;-66
2021/04/04 02:28:56;;;;;;;9.07;5.00;;;;;;;0.15;75.40;98622.59;5060944;28;20203;-67
2021/04/04 02:31:24;;;;;;;6.70;6.00;;;;;;;0.18;75.30;98625.03;5058079;28;20243;-66
2021/04/04 02:33:55;;;;;;;7.37;5.47;;;;;;;0.31;74.81;98620.00;5061601;28;20223;-66
2021/04/04 02:36:24;;;;;;;6.20;5.53;;;;;;;0.23;75.77;98628.25;5058449;28;20203;-67
2021/04/04 02:38:58;;;;;;;6.73;5.90;;;;;;;0.22;76.00;98617.88;5060985;28;20394;-66
2021/04/04 02:41:25;;;;;;;9.60;6.17;;;;;;;0.40;75.15;98614.28;5058443;28;20226;-67
2021/04/04 02:43:52;;;;;;;6.40;5.73;;;;;;;0.30;75.50;98617.47;5059573;28;20737;-67
2021/04/04 02:46:21;;;;;;;7.70;6.03;;;;;;;0.34;75.53;98612.00;5058004;28;20678;-68
2021/04/04 02:48:54;;;;;;;6.87;6.07;;;;;;;0.22;75.59;98617.88;5057364;28;20501;-68
2021/04/04 02:51:26;;;;;;;7.73;5.80;;;;;;;0.00;76.93;98621.66;5059995;28;20260;-67
2021/04/04 02:53:54;;;;;;;8.33;7.13;;;;;;;0.14;76.34;98618.28;5061399;28;20689;-67
2021/04/04 02:56:23;;;;;;;7.53;6.10;;;;;;;-0.08;77.04;98614.25;5062860;28;20213;-68
2021/04/04 02:58:53;;;;;;;6.30;5.67;;;;;;;-0.20;77.45;98613.13;5064281;28;20202;-67
2021/04/04 03:01:21;;;;;;;7.67;6.43;;;;;;;-0.12;76.79;98620.53;5064576;28;20223;-67
2021/04/04 03:03:49;;;;;;;5.83;5.30;;;;;;;-0.26;78.14;98613.44;5061512;28;20798;-69
2021/04/04 03:06:17;;;;;;;6.73;6.03;;;;;;;0.00;76.98;98616.47;5061090;28;20697;-66
2021/04/04 03:08:46;;;;;;;7.47;5.97;;;;;;;-0.17;76.99;98612.13;5065362;28;20214;-66
2021/04/04 03:11:16;;;;;;;9.10;5.40;;;;;;;-0.30;78.03;98615.38;5063838;28;20199;-67
2021/04/04 03:13:46;;;;;;;6.00;5.47;;;;;;;-0.43;77.88;98614.31;5065354;28;20309;-66
2021/04/04 03:16:13;;;;;;;5.50;5.00;;;;;;;-0.49;79.07;98610.25;5064404;28;20203;-67
2021/04/04 03:18:42;;;;;;;6.70;5.40;;;;;;;-0.52;79.11;98614.81;5062110;28;20575;-65
2021/04/04 03:21:10;;;;;;;6.07;5.47;;;;;;;-0.44;77.11;98623.88;5064253;28;20226;-67
2021/04/04 03:23:37;;;;;;;6.03;5.37;;;;;;;-0.59;78.57;98612.50;5062051;28;20223;-68
2021/04/04 03:26:05;;;;;;;6.80;5.00;;;;;;;-0.67;79.19;98622.47;5064835;28;20206;-67
2021/04/04 03:28:33;;;;;;;6.47;5.73;;;;;;;-0.79;79.09;98616.09;5064873;28;20211;-67
2021/04/04 03:31:01;;;;;;;5.93;5.40;;;;;;;-0.81;79.26;98609.31;5064440;28;20244;-67
2021/04/04 03:33:29;;;;;;;7.87;6.00;;;;;;;-0.99;80.80;98621.47;5063714;28;20764;-67
2021/04/04 03:35:57;;;;;;;6.03;5.40;;;;;;;-1.15;80.92;98610.97;5064257;28;20409;-67
2021/04/04 03:38:26;;;;;;;8.63;5.33;;;;;;;-1.28;82.57;98606.38;5064380;28;20750;-66
2021/04/04 03:40:54;;;;;;;6.50;5.40;;;;;;;-1.21;82.21;98612.09;5065161;28;20226;-67
2021/04/04 03:43:23;;;;;;;6.60;5.60;;;;;;;-1.38;82.86;98616.38;5064391;28;20666;-65
2021/04/04 03:45:52;;;;;;;7.00;5.83;;;;;;;-1.47;83.76;98607.25;5063131;28;20207;-67
2021/04/04 03:48:21;;;;;;;7.87;5.53;;;;;;;-1.55;83.21;98606.78;5064284;28;20214;-68
2021/04/04 03:50:49;;;;;;;9.10;6.03;;;;;;;-1.62;83.91;98608.81;5061640;28;20217;-67
2021/04/04 03:53:19;;;;;;;9.23;6.10;;;;;;;-1.59;85.18;98607.84;5064718;28;20231;-67
2021/04/04 03:55:48;;;;;;;6.70;5.60;;;;;;;-1.61;84.37;98614.84;5060814;28;20676;-68
2021/04/04 03:58:15;;;;;;;5.70;5.20;;;;;;;-1.66;84.55;98627.22;5061011;28;20696;-68
2021/04/04 04:00:42;;;;;;;6.20;5.43;;;;;;;-1.70;84.65;98625.69;5063551;28;20317;-67
2021/04/04 04:03:10;;;;;;;6.47;5.87;;;;;;;-1.65;85.31;98621.13;5060751;28;20237;-66
2021/04/04 04:05:37;;;;;;;6.93;6.10;;;;;;;-1.67;85.57;98609.94;5058772;28;20701;-67
2021/04/04 04:08:05;;;;;;;6.20;5.60;;;;;;;-1.66;84.58;98622.03;5060638;28;20238;-66
2021/04/04 04:10:32;;;;;;;6.97;5.53;;;;;;;-1.62;84.17;98620.97;5063472;28;20771;-65
2021/04/04 04:13:01;;;;;;;5.93;5.20;;;;;;;-1.75;84.66;98612.91;5061366;28;20234;-67
2021/04/04 04:15:28;;;;;;;6.63;5.70;;;;;;;-1.87;85.67;98626.47;5061727;28;20202;-67
2021/04/04 04:17:57;;;;;;;6.87;5.77;;;;;;;-1.88;85.73;98623.00;5062268;28;20663;-66
2021/04/04 04:20:25;;;;;;;5.93;5.20;;;;;;;-1.85;85.02;98615.06;5060337;28;20387;-66
2021/04/04 04:22:53;;;;;;;6.23;5.73;;;;;;;-2.02;86.18;98615.00;5063547;28;20219;-71
2021/04/04 04:25:21;;;;;;;6.07;5.47;;;;;;;-2.11;87.17;98617.09;5060531;28;20573;-70
2021/04/04 04:27:48;;;;;;;6.40;5.80;;;;;;;-2.17;86.39;98611.34;5062150;28;20207;-69
2021/04/04 04:30:16;;;;;;;5.50;5.00;;;;;;;-2.22;86.85;98608.94;5063229;28;20210;-72
2021/04/04 04:32:44;;;;;;;7.77;5.63;;;;;;;-2.28;87.77;98614.41;5058567;28;20661;-71
2021/04/04 04:35:12;;;;;;;6.60;5.60;;;;;;;-2.27;88.17;98605.72;5060124;28;20610;-70
2021/04/04 04:37:40;;;;;;;6.70;5.87;;;;;;;-2.29;87.97;98612.72;5060194;28;20214;-69
2021/04/04 04:40:09;;;;;;;6.70;5.47;;;;;;;-2.35;88.86;98611.22;5060212;28;20222;-68
2021/04/04 04:42:40;;;;;;;8.27;6.27;;;;;;;-2.41;88.63;98614.09;5054530;28;20233;-68
2021/04/04 04:45:12;;;;;;;7.97;5.90;;;;;;;-2.45;89.44;98607.34;5057262;28;20191;-69
2021/04/04 04:47:39;;;;;;;6.23;5.63;;;;;;;-2.50;90.03;98615.34;5054671;28;20223;-68
2021/04/04 04:50:07;;;;;;;6.47;5.73;;;;;;;-2.55;90.37;98620.75;5060785;28;20211;-69
2021/04/04 04:52:34;;;;;;;9.57;6.30;;;;;;;-2.53;90.53;98618.91;5057599;28;20745;-71
2021/04/04 04:55:03;;;;;;;6.63;5.57;;;;;;;-2.57;90.86;98612.19;5058648;28;20206;-70
2021/04/04 04:57:30;;;;;;;6.03;5.53;;;;;;;-2.55;91.07;98619.88;5061287;28;20715;-70
2021/04/04 04:59:58;;;;;;;6.30;5.80;;;;;;;-2.54;91.60;98612.03;5062381;28;20716;-70
2021/04/04 05:02:25;;;;;;;6.50;5.93;;;;;;;-2.35;90.74;98613.81;5061919;28;20227;-69
2021/04/04 05:04:52;;;;;;;6.17;5.57;;;;;;;-2.44;91.09;98609.91;5053437;28;20293;-69
2021/04/04 05:07:19;;;;;;;8.17;5.97;;;;;;;-2.48;91.36;98606.59;5061895;28;20217;-72
2021/04/04 05:09:47;;;;;;;6.10;5.50;;;;;;;-2.35;90.51;98614.69;5057271;28;20211;-70
2021/04/04 05:12:22;;;;;;;6.53;5.90;;;;;;;-2.26;90.12;98607.41;5060156;28;20285;-71
2021/04/04 05:14:49;;;;;;;6.57;6.00;;;;;;;-2.21;89.91;98601.09;5062449;28;20507;-70
2021/04/04 05:17:16;;;;;;;6.67;6.07;;;;;;;-2.18;89.14;98607.88;5061029;28;20237;-70
2021/04/04 05:19:44;;;;;;;6.33;5.80;;;;;;;-2.26;90.30;98608.25;5053266;28;20207;-70
2021/04/04 05:22:11;;;;;;;7.03;5.50;;;;;;;-2.28;90.57;98604.03;5055017;28;20258;-70
2021/04/04 05:24:38;;;;;;;6.77;6.17;;;;;;;-2.24;89.84;98616.81;5054765;28;20253;-70
2021/04/04 05:27:05;;;;;;;7.17;5.87;;;;;;;-2.16;90.69;98607.84;5053888;28;20720;-70
2021/04/04 05:29:33;;;;;;;10.37;9.40;;;;;;;-1.96;89.42;98607.75;5053668;28;20209;-69
2021/04/04 05:32:00;;;;;;;8.33;7.53;;;;;;;-1.93;89.15;98618.00;5059909;28;20194;-69
2021/04/04 05:34:29;;;;;;;6.47;5.97;;;;;;;-2.02;89.80;98610.63;5059250;28;20223;-70
2021/04/04 05:36:57;;;;;;;7.47;6.67;;;;;;;-1.96;88.95;98601.75;5056006;28;20214;-68
2021/04/04 05:39:26;;;;;;;6.60;5.83;;;;;;;-1.94;89.42;98603.34;5061919;28;20207;-69
2021/04/04 05:41:55;;;;;;;10.53;9.63;;;;;;;-1.80;89.06;98607.91;5057702;28;20238;-69
2021/04/04 05:44:27;;;;;;;11.33;10.40;;;;;;;-1.77;88.84;98606.94;5057343;28;20820;-71
2021/04/04 05:47:02;;;;;;;10.37;9.40;;;;;;;-1.76;88.23;98606.03;5059380;28;20202;-72
2021/04/04 05:49:40;;;;;;;11.53;8.47;;;;;;;-1.54;88.19;98605.00;5057285;28;20207;-68
2021/04/04 05:52:18;;;;;;;7.77;7.13;;;;;;;-1.47;87.33;98609.00;5059342;28;21534;-68
2021/04/04 05:55:02;;;;;;;7.83;7.23;;;;;;;-1.27;85.77;98604.59;5057160;28;20434;-67
2021/04/04 05:57:34;;;;;;;7.93;6.70;;;;;;;-1.27;85.16;98599.41;5056266;28;20218;-70
2021/04/04 06:00:03;;;;;;;7.80;5.97;;;;;;;-1.24;85.42;98600.09;5057318;28;20203;-70
2021/04/04 06:02:56;;;;;;;7.70;6.80;;;;;;;-1.19;85.56;98603.31;5060902;28;20722;-69
2021/04/04 06:05:32;;;;;;;8.27;7.47;;;;;;;-1.04;84.92;98600.88;5054957;28;20241;-69
2021/04/04 06:08:22;;;;;;;7.70;6.93;;;;;;;-0.88;84.99;98611.38;5059899;28;20202;-70
2021/04/04 06:10:54;;;;;;;6.97;6.37;;;;;;;-0.80;83.20;98601.41;5060302;28;20210;-69
2021/04/04 06:13:30;;;;;;;10.87;9.23;;;;;;;-0.65;82.80;98605.00;5056867;28;20222;-68
2021/04/04 06:16:07;;;;;;;12.13;10.83;;;;;;;-0.63;83.64;98605.75;5057637;28;20287;-70
2021/04/04 06:18:46;;;;;;;14.90;11.40;;;;;;;-0.50;81.88;98594.75;5060990;28;20203;-69
2021/04/04 06:21:20;;;;;;;14.93;9.73;;;;;;;-0.26;80.81;98595.22;5059833;28;20222;-69
2021/04/04 06:23:51;;;;;;;11.20;9.33;;;;;;;-0.32;81.29;98598.97;5058589;28;20670;-68
2021/04/04 06:26:32;;;;;;;11.53;7.80;;;;;;;-0.16;81.52;98595.56;5056236;28;20713;-70
2021/04/04 06:29:07;;;;;;;10.13;7.87;;;;;;;-0.04;80.88;98597.53;5059849;28;20199;-69
2021/04/04 06:31:44;;;;;;;8.70;7.83;;;;;;;0.11;80.00;98600.22;5059669;28;20207;-69
2021/04/04 06:34:16;;;;;;;10.60;8.40;;;;;;;0.25;78.28;98597.72;5060915;28;20244;-69
2021/04/04 06:36:50;;;;;;;15.53;12.27;;;;;;;0.82;75.87;98595.47;5061181;28;20228;-70
2021/04/04 06:39:31;;;;;;;12.43;11.10;;;;;;;0.72;76.02;98589.94;5061472;28;20202;-69
2021/04/04 06:42:08;;;;;;;8.87;8.07;;;;;;;0.83;75.59;98595.38;5059000;28;20593;-70
2021/04/04 06:44:46;;;;;;;7.90;7.10;;;;;;;0.86;75.90;98589.97;5055747;28;20238;-70
2021/04/04 06:47:20;;;;;;;7.20;6.50;;;;;;;1.25;74.21;98595.59;5055814;28;20206;-70
2021/04/04 06:50:07;;;;;;;10.13;7.17;;;;;;;1.30;74.07;98598.78;5059779;28;20261;-71
2021/04/04 06:52:42;;;;;;;9.33;7.03;;;;;;;1.43;74.14;98600.66;5059431;28;20207;-70
2021/04/04 06:55:14;;;;;;;7.47;6.63;;;;;;;1.61;73.36;98598.72;5063817;28;20700;-70
2021/04/04 06:58:06;;;;;;;9.23;6.60;;;;;;;1.63;72.71;98604.69;5057932;28;20214;-69
2021/04/04 07:00:37;;;;;;;7.17;6.57;;;;;;;1.84;72.19;98607.78;5059301;28;20210;-70
2021/04/04 07:03:07;;;;;;;12.10;6.67;;;;;;;1.91;71.56;98610.88;5060535;28;20972;-67
2021/04/04 07:05:38;;;;;;;7.07;6.03;;;;;;;2.05;71.71;98615.25;5057190;28;20209;-69
2021/04/04 07:08:16;;;;;;;9.63;6.77;;;;;;;2.26;70.74;98607.84;5060189;28;20598;-68
2021/04/04 07:10:51;;;;;;;8.23;6.17;;;;;;;2.38;69.19;98603.63;5057441;28;20213;-70
2021/04/04 07:13:29;;;;;;;6.60;5.97;;;;;;;2.35;69.92;98610.81;5061404;28;20697;-69
2021/04/04 07:16:09;;;;;;;7.53;6.80;;;;;;;2.79;67.34;98609.75;5057120;28;20621;-67
2021/04/04 07:18:57;;;;;;;6.47;5.87;;;;;;;2.87;67.48;98607.50;5060462;28;20199;-67
2021/04/04 07:21:50;;;;;;;6.67;6.00;;;;;;;3.04;66.59;98610.75;5056475;28;20223;-69
2021/04/04 07:24:40;;;;;;;8.83;6.47;;;;;;;3.17;65.57;98610.81;5054186;28;20313;-70
2021/04/04 07:27:14;;;;;;;9.47;6.57;;;;;;;3.16;65.57;98612.56;5050799;28;20620;-71
2021/04/04 07:30:02;;;;;;;7.00;6.10;;;;;;;3.22;66.37;98613.09;5060091;28;20222;-69
2021/04/04 07:32:36;;;;;;;8.07;6.43;;;;;;;3.55;65.28;98615.25;5055706;28;20211;-70
2021/04/04 07:35:08;;;;;;;6.87;6.10;;;;;;;3.41;65.27;98610.09;5057520;28;20204;-68
2021/04/04 07:37:44;;;;;;;7.07;6.30;;;;;;;3.71;64.76;98604.56;5055348;28;20217;-68
2021/04/04 07:40:14;;;;;;;7.47;6.17;;;;;;;4.00;62.95;98606.97;5055105;28;20202;-70
2021/04/04 07:42:59;;;;;;;17.07;11.10;;;;;;;3.99;63.30;98604.44;5063310;28;20251;-69
2021/04/04 07:45:30;;;;;;;8.97;7.33;;;;;;;3.95;63.58;98609.03;5061493;28;20203;-69
2021/04/04 07:48:05;;;;;;;7.23;5.97;;;;;;;4.19;63.93;98608.28;5061377;28;20223;-69
2021/04/04 07:50:36;;;;;;;7.57;5.83;;;;;;;4.48;62.33;98602.75;5064053;28;20210;-69
2021/04/04 07:53:17;;;;;;;6.57;5.70;;;;;;;4.66;60.66;98608.47;5063934;28;20218;-70
2021/04/04 07:55:47;;;;;;;7.37;6.13;;;;;;;4.80;59.90;98610.09;5063871;28;20312;-69
2021/04/04 07:58:21;;;;;;;15.30;9.63;;;;;;;4.80;59.95;98606.59;5060079;28;20290;-68
2021/04/04 08:00:53;;;;;;;10.80;9.30;;;;;;;4.79;60.07;98605.78;5062077;28;20214;-68
2021/04/04 08:03:23;;;;;;;8.10;5.53;;;;;;;4.97;59.07;98608.00;5063406;28;20226;-69
2021/04/04 08:05:51;;;;;;;9.70;7.10;;;;;;;5.04;58.61;98607.44;5060844;28;20207;-70
2021/04/04 08:08:22;;;;;;;10.10;6.10;;;;;;;4.97;58.94;98602.75;5063884;28;20202;-70
2021/04/04 08:10:56;;;;;;;7.07;5.90;;;;;;;5.19;58.88;98602.84;5055895;28;20208;-69
2021/04/04 08:13:28;;;;;;;9.77;8.00;;;;;;;5.60;56.57;98605.91;5061910;28;20218;-69
2021/04/04 08:16:04;;;;;;;9.30;7.33;;;;;;;5.56;56.98;98607.09;5057257;28;20214;-69
2021/04/04 08:18:31;;;;;;;9.43;7.20;;;;;;;5.43;56.79;98607.19;5061509;28;20296;-71
2021/04/04 08:21:02;;;;;;;6.13;5.53;;;;;;;5.60;55.20;98613.78;5058480;28;20679;-69
2021/04/04 08:23:34;;;;;;;7.73;5.00;;;;;;;5.62;55.12;98597.91;5061816;28;20374;-71
2021/04/04 08:26:03;;;;;;;8.07;6.83;;;;;;;5.68;55.38;98596.56;5059644;28;20212;-70
2021/04/04 08:28:35;;;;;;;6.63;6.03;;;;;;;5.73;56.17;98604.97;5060855;28;20449;-69
2021/04/04 08:31:10;;;;;;;5.73;5.17;;;;;;;5.99;53.93;98602.09;5053683;28;20226;-70
2021/04/04 08:33:42;;;;;;;5.43;4.73;;;;;;;6.23;52.50;98604.63;5057294;28;20598;-70
2021/04/04 08:36:09;;;;;;;6.00;5.40;;;;;;;6.16;53.18;98604.28;5054273;28;20380;-69
2021/04/04 08:38:41;;;;;;;5.97;4.80;;;;;;;6.16;53.16;98598.19;5058271;28;20215;-70
2021/04/04 08:41:09;;;;;;;7.57;5.17;;;;;;;6.31;52.31;98585.59;5052001;28;20199;-70
2021/04/04 08:43:38;;;;;;;6.50;5.33;;;;;;;6.28;51.82;98584.06;5054636;28;20619;-70
2021/04/04 08:46:11;;;;;;;6.07;5.47;;;;;;;6.20;52.10;98589.06;5052723;28;20211;-71
2021/04/04 08:48:39;;;;;;;5.50;4.90;;;;;;;6.43;51.38;98581.97;5053891;28;20200;-71
2021/04/04 08:51:12;;;;;;;8.40;5.13;;;;;;;6.41;51.54;98586.53;5051762;28;20627;-70
2021/04/04 08:53:41;;;;;;;5.23;4.47;;;;;;;6.62;51.20;98583.97;5053020;28;20231;-70
2021/04/04 08:56:09;;;;;;;6.10;5.07;;;;;;;6.90;50.73;98573.00;5053798;28;20615;-69
2021/04/04 08:58:38;;;;;;;6.33;5.20;;;;;;;7.39;51.01;98578.63;5061067;28;20217;-70
2021/04/04 09:01:09;;;;;;;8.67;5.13;;;;;;;7.36;50.00;98578.84;5058680;28;20202;-68
2021/04/04 09:03:38;;;;;;;6.00;5.50;;;;;;;7.44;49.69;98573.78;5062195;28;20227;-69
2021/04/04 09:06:06;;;;;;;7.13;5.63;;;;;;;7.55;48.68;98575.50;5054565;28;20286;-67
2021/04/04 09:08:34;;;;;;;5.40;4.87;;;;;;;7.63;48.21;98567.78;5057718;28;20694;-70
2021/04/04 09:11:02;;;;;;;6.60;4.83;;;;;;;7.62;46.97;98571.41;5061423;28;20203;-69
2021/04/04 09:13:31;;;;;;;5.20;4.70;;;;;;;7.75;47.03;98567.69;5060603;28;20227;-69
2021/04/04 09:16:00;;;;;;;6.40;4.57;;;;;;;7.86;45.86;98572.06;5060204;28;20203;-70
2021/04/04 09:18:27;;;;;;;4.83;4.43;;;;;;;7.66;44.85;98569.31;5062173;28;20202;-70
2021/04/04 09:21:03;;;;;;;5.63;4.37;;;;;;;7.48;44.46;98567.28;5059012;28;20206;-69
2021/04/04 09:23:31;;;;;;;3.93;3.63;;;;;;;7.75;42.73;98570.34;5060079;28;20237;-69
2021/04/04 09:26:03;;;;;;;4.73;3.80;;;;;;;7.61;44.11;98560.97;5061113;28;20249;-69
2021/04/04 09:28:34;;;;;;;4.50;3.30;;;;;;;7.80;41.03;98566.34;5055801;28;20210;-69
2021/04/04 09:31:01;;;;;;;3.23;3.00;;;;;;;7.72;40.71;98562.69;5060656;28;20857;-70
2021/04/04 09:33:30;;;;;;;3.77;3.40;;;;;;;7.73;42.55;98564.34;5060509;28;20242;-68
2021/04/04 09:35:59;;;;;;;3.27;3.03;;;;;;;7.87;40.52;98560.53;5059669;28;20308;-67
2021/04/04 09:38:30;;;;;;;4.23;3.80;;;;;;;7.68;42.95;98564.75;5054424;28;20218;-68
2021/04/04 09:40:58;;;;;;;4.13;3.83;;;;;;;7.93;43.96;98565.28;5051849;28;20204;-68
2021/04/04 09:43:26;;;;;;;5.53;4.80;;;;;;;8.08;42.37;98566.56;5054971;28;20227;-67
2021/04/04 09:46:02;;;;;;;5.70;4.30;;;;;;;8.07;41.28;98562.25;5052098;28;20219;-68
2021/04/04 09:48:30;;;;;;;6.67;4.30;;;;;;;8.07;41.23;98554.34;5050454;28;20525;-67
2021/04/04 09:51:08;;;;;;;5.07;3.80;;;;;;;8.17;40.32;98554.38;5059977;28;20214;-68
2021/04/04 09:53:37;;;;;;;5.23;4.50;;;;;;;8.10;40.55;98554.06;5057863;28;20226;-68
2021/04/04 09:56:08;;;;;;;4.23;3.87;;;;;;;8.24;40.65;98554.69;5060704;28;20203;-67
2021/04/04 09:58:38;;;;;;;7.77;5.07;;;;;;;8.28;40.59;98544.66;5058071;28;20717;-68
2021/04/04 10:01:18;;;;;;;7.77;4.60;;;;;;;8.21;39.47;98552.31;5059750;28;20230;-67
2021/04/04 10:03:59;;;;;;;7.90;5.83;;;;;;;8.33;40.95;98545.09;5059357;28;20736;-68
2021/04/04 10:06:26;;;;;;;9.23;4.87;;;;;;;8.84;40.80;98532.66;5055682;28;20202;-66
2021/04/04 10:08:54;;;;;;;4.47;4.10;;;;;;;8.96;40.26;98536.84;5060882;28;20569;-68
2021/04/04 10:11:21;;;;;;;5.33;4.83;;;;;;;9.21;40.01;98544.31;5058161;28;20198;-67
2021/04/04 10:13:49;;;;;;;6.20;4.60;;;;;;;9.41;38.84;98537.19;5059881;28;20241;-68
2021/04/04 10:16:20;;;;;;;5.23;4.37;;;;;;;9.32;37.82;98535.41;5061011;28;20203;-67
2021/04/04 10:19:05;;;;;;;6.63;4.70;;;;;;;9.50;39.32;98531.03;5060549;28;20210;-67
2021/04/04 10:21:32;;;;;;;4.57;4.10;;;;;;;9.47;37.63;98531.31;5057763;28;20576;-67
2021/04/04 10:23:59;;;;;;;5.67;4.30;;;;;;;9.24;38.00;98525.53;5061354;28;20226;-68
2021/04/04 10:26:26;;;;;;;5.37;4.33;;;;;;;9.62;38.80;98513.16;5057304;28;20231;-68
2021/04/04 10:28:59;;;;;;;5.67;4.10;;;;;;;9.67;38.00;98510.09;5059650;28;20210;-67
2021/04/04 10:31:26;;;;;;;4.53;4.20;;;;;;;9.88;36.72;98512.50;5061099;28;20454;-67
2021/04/04 10:34:00;;;;;;;4.47;4.17;;;;;;;9.45;37.73;98509.47;5060701;28;20227;-66
2021/04/04 10:36:27;;;;;;;4.97;4.47;;;;;;;9.41;37.14;98505.44;5057779;28;20677;-68
2021/04/04 10:38:55;;;;;;;4.70;4.30;;;;;;;9.13;38.92;98500.06;5059343;28;20566;-67
2021/04/04 10:41:26;;;;;;;5.50;5.07;;;;;;;9.38;38.65;98506.53;5057339;28;20207;-66
2021/04/04 10:43:54;;;;;;;8.70;4.60;;;;;;;9.63;37.38;98501.59;5055740;28;20328;-68
2021/04/04 10:46:25;;;;;;;5.77;3.90;;;;;;;9.77;36.72;98505.59;5057390;28;20564;-67
2021/04/04 10:48:52;;;;;;;5.60;4.53;;;;;;;9.77;38.21;98499.44;5054495;28;20211;-69
2021/04/04 10:51:21;;;;;;;6.30;5.73;;;;;;;10.16;36.97;98493.13;5060541;28;20206;-68
2021/04/04 10:53:49;;;;;;;5.07;4.57;;;;;;;10.94;35.45;98487.25;5056414;28;20786;-67
2021/04/04 10:56:17;;;;;;;4.80;4.30;;;;;;;11.03;35.07;98480.19;5055632;28;20237;-68
2021/04/04 10:58:47;;;;;;;8.57;5.03;;;;;;;11.71;33.55;98472.44;5058750;28;20219;-68
2021/04/04 11:01:15;;;;;;;5.77;4.77;;;;;;;11.49;34.15;98479.94;5061190;28;20215;-68
2021/04/04 11:03:44;;;;;;;6.07;5.07;;;;;;;11.00;35.67;98467.22;5059906;28;20242;-67
2021/04/04 11:06:12;;;;;;;4.93;4.20;;;;;;;11.01;35.94;98476.84;5055374;28;20211;-68
2021/04/04 11:08:40;;;;;;;12.70;7.63;;;;;;;10.40;37.12;98469.53;5057309;28;21973;-68
2021/04/04 11:11:07;;;;;;;8.70;5.27;;;;;;;10.31;37.22;98473.06;5060475;28;20201;-68
2021/04/04 11:13:35;;;;;;;7.57;5.20;;;;;;;9.88;37.56;98470.16;5060137;28;20557;-67
2021/04/04 11:16:07;;;;;;;6.33;5.17;;;;;;;10.31;37.14;98464.31;5061877;28;20203;-67
2021/04/04 11:18:39;;;;;;;5.77;4.20;;;;;;;10.66;35.83;98466.13;5064532;28;20567;-68
2021/04/04 11:21:08;;;;;;;4.93;4.53;;;;;;;11.17;35.19;98462.84;5062808;28;20737;-68
2021/04/04 11:23:37;;;;;;;7.57;4.70;;;;;;;10.98;34.50;98461.22;5064049;28;20240;-68
2021/04/04 11:26:22;;;;;;;4.33;3.37;;;;;;;11.17;35.74;98460.19;5061847;28;20214;-68
2021/04/04 11:29:07;;;;;;;5.00;4.50;;;;;;;11.25;35.28;98456.75;5061382;28;20206;-68
2021/04/04 11:31:34;;;;;;;5.40;4.03;;;;;;;11.93;33.70;98449.75;5063221;28;20206;-69
2021/04/04 11:34:23;;;;;;;6.07;4.50;;;;;;;11.87;33.10;98448.56;5064320;28;20223;-67
2021/04/04 11:36:51;;;;;;;5.97;3.97;;;;;;;12.02;34.15;98440.03;5055590;28;20297;-67
2021/04/04 11:39:18;;;;;;;6.00;4.33;;;;;;;12.50;34.10;98439.44;5059122;28;20207;-68
2021/04/04 11:41:50;;;;;;;4.93;4.13;;;;;;;12.20;33.04;98434.59;5054466;28;20203;-68
2021/04/04 11:44:20;;;;;;;4.83;4.00;;;;;;;11.76;33.25;98438.25;5057954;28;20223;-68
2021/04/04 11:46:51;;;;;;;5.00;4.50;;;;;;;12.06;32.40;98432.56;5055227;28;20449;-68
2021/04/04 11:49:48;;;;;;;4.30;4.00;;;;;;;11.96;32.71;98430.03;5054835;28;20199;-68
2021/04/04 11:52:48;;;;;;;4.80;4.40;;;;;;;11.63;33.35;98420.13;5063794;28;20221;-68